sensor_id;sensor_type;location;lat;lon;timestamp;P1;durP1;ratioP1;P2;durP2;ratioP2
61915;SDS011;47868;51.326;6.550;2023-01-28T00:01:52;9.32;;;8.38;;
61915;SDS011;47868;51.326;6.550;2023-01-28T00:04:18;10.00;;;9.00;;
61915;SDS011;47868;51.326;6.550;2023-01-28T00:06:43;9.88;;;8.98;;
61915;SDS011;47868;51.326;6.550;2023-01-28T00:09:09;10.93;;;9.88;;
61915;SDS011;47868;51.326;6.550;2023-01-28T00:11:35;10.98;;;9.88;;
61915;SDS011;47868;51.326;6.550;2023-01-28T00:14:00;14.98;;;10.38;;
61915;SDS011;47868;51.326;6.550;2023-01-28T00:16:28;10.70;;;9.60;;
61915;SDS011;47868;51.326;6.550;2023-01-28T00:18:54;11.13;;;10.02;;
61915;SDS011;47868;51.326;6.550;2023-01-28T00:21:20;11.70;;;10.35;;
61915;SDS011;47868;51.326;6.550;2023-01-28T00:23:47;11.43;;;10.32;;
61915;SDS011;47868;51.326;6.550;2023-01-28T00:26:16;11.70;;;10.50;;
61915;SDS011;47868;51.326;6.550;2023-01-28T00:28:42;11.85;;;9.88;;
61915;SDS011;47868;51.326;6.550;2023-01-28T00:31:12;11.32;;;10.13;;
61915;SDS011;47868;51.326;6.550;2023-01-28T00:33:47;11.23;;;9.98;;
61915;SDS011;47868;51.326;6.550;2023-01-28T00:36:14;10.93;;;9.82;;
61915;SDS011;47868;51.326;6.550;2023-01-28T00:38:40;11.73;;;9.70;;
61915;SDS011;47868;51.326;6.550;2023-01-28T00:41:10;11.65;;;10.45;;
61915;SDS011;47868;51.326;6.550;2023-01-28T00:43:40;11.43;;;10.32;;
61915;SDS011;47868;51.326;6.550;2023-01-28T00:46:07;11.65;;;10.43;;
61915;SDS011;47868;51.326;6.550;2023-01-28T00:48:34;11.07;;;10.00;;
61915;SDS011;47868;51.326;6.550;2023-01-28T00:51:01;12.02;;;10.82;;
61915;SDS011;47868;51.326;6.550;2023-01-28T00:53:27;12.68;;;11.00;;
61915;SDS011;47868;51.326;6.550;2023-01-28T00:55:53;12.88;;;11.60;;
61915;SDS011;47868;51.326;6.550;2023-01-28T00:58:19;11.65;;;10.55;;
61915;SDS011;47868;51.326;6.550;2023-01-28T01:00:45;11.77;;;10.68;;
61915;SDS011;47868;51.326;6.550;2023-01-28T01:03:11;14.32;;;11.18;;
61915;SDS011;47868;51.326;6.550;2023-01-28T01:05:37;12.30;;;11.00;;
61915;SDS011;47868;51.326;6.550;2023-01-28T01:08:02;11.10;;;9.95;;
61915;SDS011;47868;51.326;6.550;2023-01-28T01:10:28;11.98;;;10.73;;
61915;SDS011;47868;51.326;6.550;2023-01-28T01:12:54;11.40;;;9.52;;
61915;SDS011;47868;51.326;6.550;2023-01-28T01:15:22;13.52;;;10.02;;
61915;SDS011;47868;51.326;6.550;2023-01-28T01:17:48;11.63;;;10.48;;
61915;SDS011;47868;51.326;6.550;2023-01-28T01:20:19;10.40;;;9.35;;
61915;SDS011;47868;51.326;6.550;2023-01-28T01:22:46;11.73;;;10.52;;
61915;SDS011;47868;51.326;6.550;2023-01-28T01:25:12;11.52;;;10.38;;
61915;SDS011;47868;51.326;6.550;2023-01-28T01:27:39;12.73;;;10.82;;
61915;SDS011;47868;51.326;6.550;2023-01-28T01:30:06;14.57;;;11.75;;
61915;SDS011;47868;51.326;6.550;2023-01-28T01:32:33;16.63;;;13.05;;
61915;SDS011;47868;51.326;6.550;2023-01-28T01:35:00;14.90;;;13.38;;
61915;SDS011;47868;51.326;6.550;2023-01-28T01:37:26;14.75;;;13.00;;
61915;SDS011;47868;51.326;6.550;2023-01-28T01:39:52;16.08;;;14.38;;
61915;SDS011;47868;51.326;6.550;2023-01-28T01:42:18;14.23;;;12.82;;
61915;SDS011;47868;51.326;6.550;2023-01-28T01:48:03;14.90;;;13.38;;
61915;SDS011;47868;51.326;6.550;2023-01-28T01:50:36;15.85;;;13.00;;
61915;SDS011;47868;51.326;6.550;2023-01-28T01:53:12;14.70;;;12.57;;
61915;SDS011;47868;51.326;6.550;2023-01-28T01:55:42;14.70;;;13.18;;
61915;SDS011;47868;51.326;6.550;2023-01-28T01:58:12;13.80;;;12.35;;
61915;SDS011;47868;51.326;6.550;2023-01-28T02:00:41;11.13;;;9.93;;
61915;SDS011;47868;51.326;6.550;2023-01-28T02:03:07;12.65;;;11.45;;
61915;SDS011;47868;51.326;6.550;2023-01-28T02:05:34;12.32;;;11.02;;
61915;SDS011;47868;51.326;6.550;2023-01-28T02:08:01;12.02;;;10.82;;
61915;SDS011;47868;51.326;6.550;2023-01-28T02:10:47;11.90;;;10.80;;
61915;SDS011;47868;51.326;6.550;2023-01-28T02:13:23;10.82;;;9.82;;
61915;SDS011;47868;51.326;6.550;2023-01-28T02:15:53;13.15;;;11.60;;
61915;SDS011;47868;51.326;6.550;2023-01-28T02:18:20;12.23;;;10.75;;
61915;SDS011;47868;51.326;6.550;2023-01-28T02:20:54;11.98;;;10.88;;
61915;SDS011;47868;51.326;6.550;2023-01-28T02:23:54;10.77;;;9.77;;
61915;SDS011;47868;51.326;6.550;2023-01-28T02:29:31;8.48;;;7.57;;
61915;SDS011;47868;51.326;6.550;2023-01-28T02:32:21;7.40;;;6.70;;
61915;SDS011;47868;51.326;6.550;2023-01-28T02:35:16;8.60;;;7.80;;
61915;SDS011;47868;51.326;6.550;2023-01-28T02:37:52;8.90;;;7.10;;
61915;SDS011;47868;51.326;6.550;2023-01-28T02:40:23;8.10;;;7.40;;
61915;SDS011;47868;51.326;6.550;2023-01-28T02:42:55;7.78;;;7.07;;
61915;SDS011;47868;51.326;6.550;2023-01-28T02:45:22;8.43;;;7.63;;
61915;SDS011;47868;51.326;6.550;2023-01-28T02:48:11;7.30;;;6.70;;
61915;SDS011;47868;51.326;6.550;2023-01-28T02:50:39;8.07;;;7.32;;
61915;SDS011;47868;51.326;6.550;2023-01-28T02:53:18;9.73;;;7.13;;
61915;SDS011;47868;51.326;6.550;2023-01-28T02:56:13;7.32;;;6.72;;
61915;SDS011;47868;51.326;6.550;2023-01-28T02:58:46;7.43;;;6.72;;
61915;SDS011;47868;51.326;6.550;2023-01-28T03:01:24;8.18;;;7.38;;
61915;SDS011;47868;51.326;6.550;2023-01-28T03:04:15;7.72;;;7.05;;
61915;SDS011;47868;51.326;6.550;2023-01-28T03:06:52;7.55;;;6.85;;
61915;SDS011;47868;51.326;6.550;2023-01-28T03:09:22;8.35;;;7.65;;
61915;SDS011;47868;51.326;6.550;2023-01-28T03:15:02;8.57;;;7.38;;
61915;SDS011;47868;51.326;6.550;2023-01-28T03:21:03;8.52;;;7.82;;
61915;SDS011;47868;51.326;6.550;2023-01-28T03:26:45;7.72;;;7.03;;
61915;SDS011;47868;51.326;6.550;2023-01-28T03:29:40;7.82;;;7.20;;
61915;SDS011;47868;51.326;6.550;2023-01-28T03:32:28;7.30;;;6.70;;
61915;SDS011;47868;51.326;6.550;2023-01-28T03:35:13;7.85;;;7.15;;
61915;SDS011;47868;51.326;6.550;2023-01-28T03:37:59;10.88;;;7.40;;
61915;SDS011;47868;51.326;6.550;2023-01-28T03:40:52;9.60;;;8.60;;
61915;SDS011;47868;51.326;6.550;2023-01-28T03:43:21;9.45;;;8.55;;
61915;SDS011;47868;51.326;6.550;2023-01-28T03:45:47;10.07;;;9.13;;
61915;SDS011;47868;51.326;6.550;2023-01-28T03:48:20;10.52;;;9.55;;
61915;SDS011;47868;51.326;6.550;2023-01-28T03:50:47;11.10;;;10.00;;
61915;SDS011;47868;51.326;6.550;2023-01-28T03:53:14;9.70;;;8.80;;
61915;SDS011;47868;51.326;6.550;2023-01-28T03:55:43;10.73;;;9.63;;
61915;SDS011;47868;51.326;6.550;2023-01-28T03:58:10;11.55;;;10.35;;
61915;SDS011;47868;51.326;6.550;2023-01-28T04:00:36;12.48;;;11.20;;
61915;SDS011;47868;51.326;6.550;2023-01-28T04:03:05;12.17;;;10.10;;
61915;SDS011;47868;51.326;6.550;2023-01-28T04:06:00;12.37;;;10.43;;
61915;SDS011;47868;51.326;6.550;2023-01-28T04:08:28;13.25;;;11.70;;
61915;SDS011;47868;51.326;6.550;2023-01-28T04:10:54;12.68;;;11.45;;
61915;SDS011;47868;51.326;6.550;2023-01-28T04:13:20;14.85;;;11.10;;
61915;SDS011;47868;51.326;6.550;2023-01-28T04:15:46;12.15;;;10.95;;
61915;SDS011;47868;51.326;6.550;2023-01-28T04:18:11;12.60;;;11.40;;
61915;SDS011;47868;51.326;6.550;2023-01-28T04:20:37;13.60;;;11.02;;
61915;SDS011;47868;51.326;6.550;2023-01-28T04:23:03;11.52;;;10.40;;
61915;SDS011;47868;51.326;6.550;2023-01-28T04:25:29;11.43;;;10.23;;
61915;SDS011;47868;51.326;6.550;2023-01-28T04:27:56;13.65;;;9.65;;
61915;SDS011;47868;51.326;6.550;2023-01-28T04:30:21;11.38;;;10.20;;
61915;SDS011;47868;51.326;6.550;2023-01-28T04:32:47;15.27;;;9.75;;
61915;SDS011;47868;51.326;6.550;2023-01-28T04:35:17;10.38;;;9.38;;
61915;SDS011;47868;51.326;6.550;2023-01-28T04:37:43;10.65;;;9.50;;
61915;SDS011;47868;51.326;6.550;2023-01-28T04:40:10;10.95;;;9.85;;
61915;SDS011;47868;51.326;6.550;2023-01-28T04:42:36;12.20;;;11.00;;
61915;SDS011;47868;51.326;6.550;2023-01-28T04:45:02;10.95;;;9.85;;
61915;SDS011;47868;51.326;6.550;2023-01-28T04:47:29;13.52;;;11.05;;
61915;SDS011;47868;51.326;6.550;2023-01-28T04:49:54;10.40;;;9.40;;
61915;SDS011;47868;51.326;6.550;2023-01-28T04:52:20;12.77;;;11.48;;
61915;SDS011;47868;51.326;6.550;2023-01-28T04:54:45;12.63;;;10.68;;
61915;SDS011;47868;51.326;6.550;2023-01-28T04:57:11;11.27;;;10.27;;
61915;SDS011;47868;51.326;6.550;2023-01-28T04:59:36;11.55;;;10.45;;
61915;SDS011;47868;51.326;6.550;2023-01-28T05:02:02;13.88;;;11.13;;
61915;SDS011;47868;51.326;6.550;2023-01-28T05:04:28;12.93;;;10.35;;
61915;SDS011;47868;51.326;6.550;2023-01-28T05:06:53;13.00;;;11.02;;
61915;SDS011;47868;51.326;6.550;2023-01-28T05:09:19;12.45;;;11.20;;
61915;SDS011;47868;51.326;6.550;2023-01-28T05:11:45;13.20;;;11.77;;
61915;SDS011;47868;51.326;6.550;2023-01-28T05:14:10;13.00;;;11.30;;
61915;SDS011;47868;51.326;6.550;2023-01-28T05:16:36;12.52;;;11.30;;
61915;SDS011;47868;51.326;6.550;2023-01-28T05:19:02;14.45;;;12.13;;
61915;SDS011;47868;51.326;6.550;2023-01-28T05:21:28;13.13;;;11.82;;
61915;SDS011;47868;51.326;6.550;2023-01-28T05:23:53;13.35;;;11.82;;
61915;SDS011;47868;51.326;6.550;2023-01-28T05:26:19;13.82;;;12.43;;
61915;SDS011;47868;51.326;6.550;2023-01-28T05:28:44;13.73;;;12.43;;
61915;SDS011;47868;51.326;6.550;2023-01-28T05:31:10;14.40;;;12.90;;
61915;SDS011;47868;51.326;6.550;2023-01-28T05:33:36;16.88;;;13.52;;
61915;SDS011;47868;51.326;6.550;2023-01-28T05:36:02;17.42;;;13.27;;
61915;SDS011;47868;51.326;6.550;2023-01-28T05:38:28;14.40;;;12.20;;
61915;SDS011;47868;51.326;6.550;2023-01-28T05:40:54;16.33;;;12.38;;
61915;SDS011;47868;51.326;6.550;2023-01-28T05:43:20;14.15;;;12.68;;
61915;SDS011;47868;51.326;6.550;2023-01-28T05:45:47;15.23;;;13.70;;
61915;SDS011;47868;51.326;6.550;2023-01-28T05:48:12;16.45;;;14.50;;
61915;SDS011;47868;51.326;6.550;2023-01-28T05:50:38;14.93;;;13.27;;
61915;SDS011;47868;51.326;6.550;2023-01-28T05:53:05;18.45;;;15.10;;
61915;SDS011;47868;51.326;6.550;2023-01-28T05:55:31;18.27;;;15.38;;
61915;SDS011;47868;51.326;6.550;2023-01-28T05:57:56;16.35;;;14.07;;
61915;SDS011;47868;51.326;6.550;2023-01-28T06:00:22;18.75;;;15.98;;
61915;SDS011;47868;51.326;6.550;2023-01-28T06:02:49;18.67;;;16.67;;
61915;SDS011;47868;51.326;6.550;2023-01-28T06:05:16;17.70;;;15.40;;
61915;SDS011;47868;51.326;6.550;2023-01-28T06:07:45;20.42;;;16.67;;
61915;SDS011;47868;51.326;6.550;2023-01-28T06:10:12;19.95;;;17.35;;
61915;SDS011;47868;51.326;6.550;2023-01-28T06:12:39;18.38;;;15.23;;
61915;SDS011;47868;51.326;6.550;2023-01-28T06:15:05;19.10;;;16.88;;
61915;SDS011;47868;51.326;6.550;2023-01-28T06:17:31;21.52;;;15.13;;
61915;SDS011;47868;51.326;6.550;2023-01-28T06:19:56;22.15;;;16.15;;
61915;SDS011;47868;51.326;6.550;2023-01-28T06:22:22;18.75;;;15.82;;
61915;SDS011;47868;51.326;6.550;2023-01-28T06:24:48;22.35;;;16.25;;
61915;SDS011;47868;51.326;6.550;2023-01-28T06:27:13;18.93;;;16.07;;
61915;SDS011;47868;51.326;6.550;2023-01-28T06:29:39;17.50;;;15.25;;
61915;SDS011;47868;51.326;6.550;2023-01-28T06:32:04;21.25;;;16.27;;
61915;SDS011;47868;51.326;6.550;2023-01-28T06:34:30;21.48;;;16.77;;
61915;SDS011;47868;51.326;6.550;2023-01-28T06:36:56;22.13;;;19.08;;
61915;SDS011;47868;51.326;6.550;2023-01-28T06:39:22;23.60;;;19.17;;
61915;SDS011;47868;51.326;6.550;2023-01-28T06:41:48;20.67;;;17.10;;
61915;SDS011;47868;51.326;6.550;2023-01-28T06:44:14;22.05;;;19.45;;
61915;SDS011;47868;51.326;6.550;2023-01-28T06:46:40;25.20;;;19.30;;
61915;SDS011;47868;51.326;6.550;2023-01-28T06:49:06;24.08;;;18.50;;
61915;SDS011;47868;51.326;6.550;2023-01-28T06:51:31;25.00;;;18.90;;
61915;SDS011;47868;51.326;6.550;2023-01-28T06:53:57;24.42;;;19.48;;
61915;SDS011;47868;51.326;6.550;2023-01-28T06:56:22;22.35;;;19.33;;
61915;SDS011;47868;51.326;6.550;2023-01-28T06:58:48;23.40;;;18.60;;
61915;SDS011;47868;51.326;6.550;2023-01-28T07:01:14;34.45;;;19.77;;
61915;SDS011;47868;51.326;6.550;2023-01-28T07:03:39;24.33;;;18.33;;
61915;SDS011;47868;51.326;6.550;2023-01-28T07:06:05;23.88;;;19.02;;
61915;SDS011;47868;51.326;6.550;2023-01-28T07:08:31;23.60;;;19.85;;
61915;SDS011;47868;51.326;6.550;2023-01-28T07:10:57;25.73;;;20.30;;
61915;SDS011;47868;51.326;6.550;2023-01-28T07:13:23;28.15;;;18.65;;
61915;SDS011;47868;51.326;6.550;2023-01-28T07:15:48;24.15;;;18.92;;
61915;SDS011;47868;51.326;6.550;2023-01-28T07:18:14;27.80;;;21.25;;
61915;SDS011;47868;51.326;6.550;2023-01-28T07:20:40;25.92;;;20.88;;
61915;SDS011;47868;51.326;6.550;2023-01-28T07:23:06;24.38;;;20.67;;
61915;SDS011;47868;51.326;6.550;2023-01-28T07:25:32;26.77;;;20.05;;
61915;SDS011;47868;51.326;6.550;2023-01-28T07:27:57;26.98;;;21.08;;
61915;SDS011;47868;51.326;6.550;2023-01-28T07:30:23;27.83;;;22.85;;
61915;SDS011;47868;51.326;6.550;2023-01-28T07:32:56;30.90;;;22.63;;
61915;SDS011;47868;51.326;6.550;2023-01-28T07:35:23;34.40;;;23.23;;
61915;SDS011;47868;51.326;6.550;2023-01-28T07:37:53;31.27;;;22.50;;
61915;SDS011;47868;51.326;6.550;2023-01-28T07:40:24;31.70;;;21.97;;
61915;SDS011;47868;51.326;6.550;2023-01-28T07:42:50;26.98;;;21.52;;
61915;SDS011;47868;51.326;6.550;2023-01-28T07:45:17;30.50;;;22.23;;
61915;SDS011;47868;51.326;6.550;2023-01-28T07:47:43;34.70;;;23.52;;
61915;SDS011;47868;51.326;6.550;2023-01-28T07:50:09;34.53;;;24.70;;
61915;SDS011;47868;51.326;6.550;2023-01-28T07:52:35;33.13;;;23.87;;
61915;SDS011;47868;51.326;6.550;2023-01-28T07:55:08;32.87;;;23.50;;
61915;SDS011;47868;51.326;6.550;2023-01-28T07:57:36;33.25;;;22.85;;
61915;SDS011;47868;51.326;6.550;2023-01-28T08:00:02;33.72;;;22.15;;
61915;SDS011;47868;51.326;6.550;2023-01-28T08:02:28;28.23;;;20.90;;
61915;SDS011;47868;51.326;6.550;2023-01-28T08:04:54;29.05;;;21.85;;
61915;SDS011;47868;51.326;6.550;2023-01-28T08:07:23;32.58;;;21.60;;
61915;SDS011;47868;51.326;6.550;2023-01-28T08:09:50;29.73;;;22.95;;
61915;SDS011;47868;51.326;6.550;2023-01-28T08:12:15;26.42;;;20.33;;
61915;SDS011;47868;51.326;6.550;2023-01-28T08:14:41;28.48;;;21.08;;
61915;SDS011;47868;51.326;6.550;2023-01-28T08:17:06;33.40;;;21.70;;
61915;SDS011;47868;51.326;6.550;2023-01-28T08:19:32;34.83;;;22.17;;
61915;SDS011;47868;51.326;6.550;2023-01-28T08:21:58;27.10;;;21.83;;
61915;SDS011;47868;51.326;6.550;2023-01-28T08:24:23;28.13;;;22.27;;
61915;SDS011;47868;51.326;6.550;2023-01-28T08:26:49;29.92;;;22.30;;
61915;SDS011;47868;51.326;6.550;2023-01-28T08:29:15;29.90;;;23.75;;
61915;SDS011;47868;51.326;6.550;2023-01-28T08:31:40;30.73;;;23.67;;
61915;SDS011;47868;51.326;6.550;2023-01-28T08:34:06;28.83;;;22.95;;
61915;SDS011;47868;51.326;6.550;2023-01-28T08:36:32;26.63;;;21.63;;
61915;SDS011;47868;51.326;6.550;2023-01-28T08:38:57;29.42;;;21.83;;
61915;SDS011;47868;51.326;6.550;2023-01-28T08:41:23;26.65;;;20.90;;
61915;SDS011;47868;51.326;6.550;2023-01-28T08:43:49;31.33;;;21.55;;
61915;SDS011;47868;51.326;6.550;2023-01-28T08:46:14;28.88;;;21.13;;
61915;SDS011;47868;51.326;6.550;2023-01-28T08:48:40;25.60;;;20.17;;
61915;SDS011;47868;51.326;6.550;2023-01-28T08:51:06;25.75;;;20.42;;
61915;SDS011;47868;51.326;6.550;2023-01-28T08:53:32;26.70;;;21.58;;
61915;SDS011;47868;51.326;6.550;2023-01-28T08:55:57;27.95;;;20.85;;
61915;SDS011;47868;51.326;6.550;2023-01-28T08:58:23;29.77;;;20.35;;
61915;SDS011;47868;51.326;6.550;2023-01-28T09:00:49;25.85;;;20.67;;
61915;SDS011;47868;51.326;6.550;2023-01-28T09:03:15;27.42;;;21.30;;
61915;SDS011;47868;51.326;6.550;2023-01-28T09:05:41;30.48;;;21.55;;
61915;SDS011;47868;51.326;6.550;2023-01-28T09:08:07;28.88;;;22.13;;
61915;SDS011;47868;51.326;6.550;2023-01-28T09:10:35;25.88;;;19.70;;
61915;SDS011;47868;51.326;6.550;2023-01-28T09:13:08;31.95;;;20.30;;
61915;SDS011;47868;51.326;6.550;2023-01-28T09:15:35;23.23;;;18.88;;
61915;SDS011;47868;51.326;6.550;2023-01-28T09:18:01;26.38;;;19.77;;
61915;SDS011;47868;51.326;6.550;2023-01-28T09:20:27;27.08;;;19.35;;
61915;SDS011;47868;51.326;6.550;2023-01-28T09:22:53;23.92;;;19.33;;
61915;SDS011;47868;51.326;6.550;2023-01-28T09:25:19;25.10;;;19.63;;
61915;SDS011;47868;51.326;6.550;2023-01-28T09:27:45;50.63;;;21.60;;
61915;SDS011;47868;51.326;6.550;2023-01-28T09:30:11;24.88;;;18.83;;
61915;SDS011;47868;51.326;6.550;2023-01-28T09:32:37;25.58;;;19.10;;
61915;SDS011;47868;51.326;6.550;2023-01-28T09:35:03;26.38;;;19.77;;
61915;SDS011;47868;51.326;6.550;2023-01-28T09:37:29;25.90;;;19.90;;
61915;SDS011;47868;51.326;6.550;2023-01-28T09:39:55;26.15;;;19.60;;
61915;SDS011;47868;51.326;6.550;2023-01-28T09:47:42;29.08;;;21.27;;
61915;SDS011;47868;51.326;6.550;2023-01-28T09:50:11;26.00;;;21.45;;
61915;SDS011;47868;51.326;6.550;2023-01-28T09:52:42;26.55;;;20.02;;
61915;SDS011;47868;51.326;6.550;2023-01-28T09:58:19;25.33;;;20.08;;
61915;SDS011;47868;51.326;6.550;2023-01-28T10:06:07;25.98;;;20.65;;
61915;SDS011;47868;51.326;6.550;2023-01-28T10:20:02;29.45;;;21.10;;
61915;SDS011;47868;51.326;6.550;2023-01-28T10:22:40;27.73;;;21.23;;
61915;SDS011;47868;51.326;6.550;2023-01-28T10:25:20;24.05;;;19.45;;
61915;SDS011;47868;51.326;6.550;2023-01-28T10:27:49;26.25;;;20.40;;
61915;SDS011;47868;51.326;6.550;2023-01-28T10:32:46;28.35;;;19.63;;
61915;SDS011;47868;51.326;6.550;2023-01-28T10:35:33;31.02;;;21.15;;
61915;SDS011;47868;51.326;6.550;2023-01-28T10:38:04;25.48;;;20.20;;
61915;SDS011;47868;51.326;6.550;2023-01-28T10:40:33;23.70;;;19.38;;
61915;SDS011;47868;51.326;6.550;2023-01-28T10:42:59;27.13;;;21.38;;
61915;SDS011;47868;51.326;6.550;2023-01-28T10:45:27;25.98;;;19.65;;
61915;SDS011;47868;51.326;6.550;2023-01-28T10:48:06;25.38;;;20.42;;
61915;SDS011;47868;51.326;6.550;2023-01-28T10:50:32;52.95;;;22.48;;
61915;SDS011;47868;51.326;6.550;2023-01-28T10:53:00;32.50;;;20.15;;
61915;SDS011;47868;51.326;6.550;2023-01-28T10:55:29;27.58;;;19.65;;
61915;SDS011;47868;51.326;6.550;2023-01-28T10:58:01;24.25;;;19.75;;
61915;SDS011;47868;51.326;6.550;2023-01-28T11:00:29;27.70;;;19.25;;
61915;SDS011;47868;51.326;6.550;2023-01-28T11:02:58;25.27;;;20.23;;
61915;SDS011;47868;51.326;6.550;2023-01-28T11:05:25;28.02;;;20.40;;
61915;SDS011;47868;51.326;6.550;2023-01-28T11:08:12;25.48;;;19.25;;
61915;SDS011;47868;51.326;6.550;2023-01-28T11:10:39;25.10;;;19.63;;
61915;SDS011;47868;51.326;6.550;2023-01-28T11:13:13;28.52;;;20.15;;
61915;SDS011;47868;51.326;6.550;2023-01-28T11:15:40;23.35;;;19.70;;
61915;SDS011;47868;51.326;6.550;2023-01-28T11:19:02;31.80;;;21.55;;
61915;SDS011;47868;51.326;6.550;2023-01-28T11:21:25;26.27;;;19.52;;
61915;SDS011;47868;51.326;6.550;2023-01-28T11:24:00;26.27;;;20.05;;
61915;SDS011;47868;51.326;6.550;2023-01-28T11:26:42;27.60;;;20.85;;
61915;SDS011;47868;51.326;6.550;2023-01-28T11:34:48;34.78;;;23.52;;
61915;SDS011;47868;51.326;6.550;2023-01-28T11:37:15;34.28;;;23.08;;
61915;SDS011;47868;51.326;6.550;2023-01-28T11:39:41;35.72;;;22.40;;
61915;SDS011;47868;51.326;6.550;2023-01-28T11:44:35;30.05;;;22.70;;
61915;SDS011;47868;51.326;6.550;2023-01-28T11:58:20;27.77;;;20.95;;
61915;SDS011;47868;51.326;6.550;2023-01-28T12:08:40;30.08;;;22.38;;
61915;SDS011;47868;51.326;6.550;2023-01-28T12:14:58;28.80;;;22.88;;
61915;SDS011;47868;51.326;6.550;2023-01-28T12:17:58;28.92;;;21.95;;
61915;SDS011;47868;51.326;6.550;2023-01-28T12:39:22;31.15;;;23.85;;
61915;SDS011;47868;51.326;6.550;2023-01-28T12:42:09;33.55;;;25.45;;
61915;SDS011;47868;51.326;6.550;2023-01-28T12:44:48;33.05;;;24.60;;
61915;SDS011;47868;51.326;6.550;2023-01-28T12:47:21;30.63;;;24.55;;
61915;SDS011;47868;51.326;6.550;2023-01-28T12:49:55;32.20;;;24.10;;
61915;SDS011;47868;51.326;6.550;2023-01-28T12:52:33;33.28;;;26.42;;
61915;SDS011;47868;51.326;6.550;2023-01-28T12:58:02;31.98;;;25.85;;
61915;SDS011;47868;51.326;6.550;2023-01-28T13:00:32;34.28;;;26.48;;
61915;SDS011;47868;51.326;6.550;2023-01-28T13:03:17;33.67;;;26.23;;
61915;SDS011;47868;51.326;6.550;2023-01-28T13:05:58;29.08;;;23.77;;
61915;SDS011;47868;51.326;6.550;2023-01-28T13:08:30;29.40;;;24.77;;
61915;SDS011;47868;51.326;6.550;2023-01-28T13:10:56;30.63;;;24.75;;
61915;SDS011;47868;51.326;6.550;2023-01-28T13:15:55;33.28;;;26.90;;
61915;SDS011;47868;51.326;6.550;2023-01-28T13:21:05;33.47;;;27.00;;
61915;SDS011;47868;51.326;6.550;2023-01-28T13:28:42;32.67;;;26.55;;
61915;SDS011;47868;51.326;6.550;2023-01-28T13:31:09;32.78;;;27.75;;
61915;SDS011;47868;51.326;6.550;2023-01-28T13:33:41;34.60;;;26.70;;
61915;SDS011;47868;51.326;6.550;2023-01-28T13:38:59;35.63;;;28.38;;
61915;SDS011;47868;51.326;6.550;2023-01-28T13:41:42;37.25;;;28.40;;
61915;SDS011;47868;51.326;6.550;2023-01-28T13:46:50;38.00;;;27.65;;
61915;SDS011;47868;51.326;6.550;2023-01-28T13:49:27;40.15;;;29.33;;
61915;SDS011;47868;51.326;6.550;2023-01-28T13:52:06;38.45;;;28.70;;
61915;SDS011;47868;51.326;6.550;2023-01-28T13:54:37;36.22;;;30.13;;
61915;SDS011;47868;51.326;6.550;2023-01-28T13:57:19;37.35;;;29.27;;
61915;SDS011;47868;51.326;6.550;2023-01-28T14:11:57;41.42;;;30.85;;
61915;SDS011;47868;51.326;6.550;2023-01-28T14:20:21;38.45;;;30.00;;
61915;SDS011;47868;51.326;6.550;2023-01-28T14:22:49;46.92;;;30.75;;
61915;SDS011;47868;51.326;6.550;2023-01-28T14:25:20;40.03;;;30.50;;
61915;SDS011;47868;51.326;6.550;2023-01-28T14:27:53;42.25;;;29.92;;
61915;SDS011;47868;51.326;6.550;2023-01-28T14:33:06;40.92;;;29.75;;
61915;SDS011;47868;51.326;6.550;2023-01-28T14:35:35;44.00;;;29.83;;
61915;SDS011;47868;51.326;6.550;2023-01-28T14:38:07;46.85;;;32.78;;
61915;SDS011;47868;51.326;6.550;2023-01-28T14:40:37;49.15;;;30.23;;
61915;SDS011;47868;51.326;6.550;2023-01-28T14:43:05;40.67;;;30.05;;
61915;SDS011;47868;51.326;6.550;2023-01-28T14:56:13;38.22;;;30.10;;
61915;SDS011;47868;51.326;6.550;2023-01-28T14:58:45;40.45;;;29.75;;
61915;SDS011;47868;51.326;6.550;2023-01-28T15:01:33;37.85;;;29.38;;
61915;SDS011;47868;51.326;6.550;2023-01-28T15:03:59;35.60;;;28.48;;
61915;SDS011;47868;51.326;6.550;2023-01-28T15:06:30;39.28;;;29.88;;
61915;SDS011;47868;51.326;6.550;2023-01-28T15:09:10;38.22;;;29.52;;
61915;SDS011;47868;51.326;6.550;2023-01-28T15:11:37;36.05;;;29.10;;
61915;SDS011;47868;51.326;6.550;2023-01-28T15:14:12;36.83;;;28.70;;
61915;SDS011;47868;51.326;6.550;2023-01-28T15:16:49;37.28;;;29.90;;
61915;SDS011;47868;51.326;6.550;2023-01-28T15:19:15;40.55;;;29.38;;
61915;SDS011;47868;51.326;6.550;2023-01-28T15:21:46;38.58;;;29.23;;
61915;SDS011;47868;51.326;6.550;2023-01-28T15:24:12;34.67;;;27.67;;
61915;SDS011;47868;51.326;6.550;2023-01-28T15:26:38;35.88;;;28.45;;
61915;SDS011;47868;51.326;6.550;2023-01-28T15:29:04;37.17;;;28.08;;
61915;SDS011;47868;51.326;6.550;2023-01-28T15:31:31;41.97;;;30.35;;
61915;SDS011;47868;51.326;6.550;2023-01-28T15:34:11;42.28;;;31.42;;
61915;SDS011;47868;51.326;6.550;2023-01-28T15:36:39;43.38;;;31.42;;
61915;SDS011;47868;51.326;6.550;2023-01-28T15:39:12;40.83;;;30.02;;
61915;SDS011;47868;51.326;6.550;2023-01-28T15:41:40;38.03;;;30.50;;
61915;SDS011;47868;51.326;6.550;2023-01-28T15:44:15;40.70;;;30.63;;
61915;SDS011;47868;51.326;6.550;2023-01-28T15:46:54;43.10;;;31.30;;
61915;SDS011;47868;51.326;6.550;2023-01-28T15:49:25;38.10;;;29.05;;
61915;SDS011;47868;51.326;6.550;2023-01-28T15:51:55;41.83;;;31.17;;
61915;SDS011;47868;51.326;6.550;2023-01-28T15:54:21;40.92;;;30.02;;
61915;SDS011;47868;51.326;6.550;2023-01-28T15:56:47;42.67;;;30.23;;
61915;SDS011;47868;51.326;6.550;2023-01-28T15:59:17;38.10;;;29.45;;
61915;SDS011;47868;51.326;6.550;2023-01-28T16:01:48;39.75;;;29.90;;
61915;SDS011;47868;51.326;6.550;2023-01-28T16:04:22;38.30;;;28.47;;
61915;SDS011;47868;51.326;6.550;2023-01-28T16:06:52;44.08;;;28.67;;
61915;SDS011;47868;51.326;6.550;2023-01-28T16:12:10;38.33;;;28.13;;
61915;SDS011;47868;51.326;6.550;2023-01-28T16:17:03;43.42;;;30.42;;
61915;SDS011;47868;51.326;6.550;2023-01-28T16:19:30;39.78;;;30.25;;
61915;SDS011;47868;51.326;6.550;2023-01-28T16:22:00;38.20;;;30.23;;
61915;SDS011;47868;51.326;6.550;2023-01-28T16:24:30;42.45;;;30.80;;
61915;SDS011;47868;51.326;6.550;2023-01-28T16:27:17;49.65;;;32.70;;
61915;SDS011;47868;51.326;6.550;2023-01-28T16:29:45;47.43;;;30.77;;
61915;SDS011;47868;51.326;6.550;2023-01-28T16:32:25;43.37;;;31.13;;
61915;SDS011;47868;51.326;6.550;2023-01-28T16:34:52;45.23;;;30.53;;
61915;SDS011;47868;51.326;6.550;2023-01-28T16:37:18;42.17;;;32.20;;
61915;SDS011;47868;51.326;6.550;2023-01-28T16:39:44;44.77;;;32.17;;
61915;SDS011;47868;51.326;6.550;2023-01-28T16:42:09;46.17;;;32.70;;
61915;SDS011;47868;51.326;6.550;2023-01-28T16:44:35;43.47;;;33.30;;
61915;SDS011;47868;51.326;6.550;2023-01-28T16:47:00;43.30;;;31.27;;
61915;SDS011;47868;51.326;6.550;2023-01-28T16:49:28;44.40;;;32.22;;
61915;SDS011;47868;51.326;6.550;2023-01-28T16:51:54;46.80;;;31.80;;
61915;SDS011;47868;51.326;6.550;2023-01-28T16:54:19;54.57;;;31.77;;
61915;SDS011;47868;51.326;6.550;2023-01-28T16:56:45;56.27;;;31.83;;
61915;SDS011;47868;51.326;6.550;2023-01-28T16:59:11;42.43;;;28.90;;
61915;SDS011;47868;51.326;6.550;2023-01-28T17:01:38;43.27;;;29.80;;
61915;SDS011;47868;51.326;6.550;2023-01-28T17:04:04;40.50;;;29.97;;
61915;SDS011;47868;51.326;6.550;2023-01-28T17:06:33;46.00;;;30.73;;